sensor_id;sensor_type;location;lat;lon;timestamp;P1;durP1;ratioP1;P2;durP2;ratioP2
15871;SDS011;8035;51.962;7.162;2023-07-16T00:00:26;3.70;;;2.60;;
15871;SDS011;8035;51.962;7.162;2023-07-16T00:02:52;3.00;;;2.50;;
15871;SDS011;8035;51.962;7.162;2023-07-16T00:05:18;5.07;;;2.57;;
15871;SDS011;8035;51.962;7.162;2023-07-16T00:07:43;3.97;;;2.87;;
15871;SDS011;8035;51.962;7.162;2023-07-16T00:10:09;4.90;;;2.47;;
15871;SDS011;8035;51.962;7.162;2023-07-16T00:12:35;4.20;;;2.17;;
15871;SDS011;8035;51.962;7.162;2023-07-16T00:15:00;4.00;;;2.30;;
15871;SDS011;8035;51.962;7.162;2023-07-16T00:17:26;3.23;;;2.23;;
15871;SDS011;8035;51.962;7.162;2023-07-16T00:19:52;4.00;;;2.27;;
15871;SDS011;8035;51.962;7.162;2023-07-16T00:22:17;5.70;;;2.80;;
15871;SDS011;8035;51.962;7.162;2023-07-16T00:24:43;5.33;;;2.50;;
15871;SDS011;8035;51.962;7.162;2023-07-16T00:27:08;4.13;;;3.00;;
15871;SDS011;8035;51.962;7.162;2023-07-16T00:29:34;4.77;;;2.73;;
15871;SDS011;8035;51.962;7.162;2023-07-16T00:31:59;5.23;;;2.70;;
15871;SDS011;8035;51.962;7.162;2023-07-16T00:34:25;4.87;;;2.77;;
15871;SDS011;8035;51.962;7.162;2023-07-16T00:36:50;4.90;;;3.10;;
15871;SDS011;8035;51.962;7.162;2023-07-16T00:39:16;3.40;;;2.27;;
15871;SDS011;8035;51.962;7.162;2023-07-16T00:41:41;3.80;;;2.53;;
15871;SDS011;8035;51.962;7.162;2023-07-16T00:44:07;4.70;;;2.50;;
15871;SDS011;8035;51.962;7.162;2023-07-16T00:46:32;5.37;;;3.03;;
15871;SDS011;8035;51.962;7.162;2023-07-16T00:48:58;6.10;;;2.90;;
15871;SDS011;8035;51.962;7.162;2023-07-16T00:51:24;3.67;;;2.50;;
15871;SDS011;8035;51.962;7.162;2023-07-16T00:53:50;3.53;;;2.53;;
15871;SDS011;8035;51.962;7.162;2023-07-16T00:56:17;4.83;;;2.80;;
15871;SDS011;8035;51.962;7.162;2023-07-16T00:58:43;5.43;;;2.90;;
15871;SDS011;8035;51.962;7.162;2023-07-16T01:01:09;5.63;;;2.90;;
15871;SDS011;8035;51.962;7.162;2023-07-16T01:03:34;5.43;;;2.73;;
15871;SDS011;8035;51.962;7.162;2023-07-16T01:06:02;5.70;;;3.20;;
15871;SDS011;8035;51.962;7.162;2023-07-16T01:08:35;5.20;;;2.50;;
15871;SDS011;8035;51.962;7.162;2023-07-16T01:11:05;3.53;;;2.80;;
15871;SDS011;8035;51.962;7.162;2023-07-16T01:13:32;6.90;;;3.20;;
15871;SDS011;8035;51.962;7.162;2023-07-16T01:15:58;3.70;;;2.53;;
15871;SDS011;8035;51.962;7.162;2023-07-16T01:18:24;3.97;;;2.43;;
15871;SDS011;8035;51.962;7.162;2023-07-16T01:20:49;5.00;;;3.27;;
15871;SDS011;8035;51.962;7.162;2023-07-16T01:23:23;6.67;;;3.40;;
15871;SDS011;8035;51.962;7.162;2023-07-16T01:31:09;5.93;;;3.33;;
15871;SDS011;8035;51.962;7.162;2023-07-16T01:33:36;4.13;;;3.13;;
15871;SDS011;8035;51.962;7.162;2023-07-16T01:36:04;5.93;;;2.63;;
15871;SDS011;8035;51.962;7.162;2023-07-16T01:38:31;4.13;;;2.70;;
15871;SDS011;8035;51.962;7.162;2023-07-16T01:40:57;6.87;;;2.90;;
15871;SDS011;8035;51.962;7.162;2023-07-16T01:43:23;6.00;;;2.77;;
15871;SDS011;8035;51.962;7.162;2023-07-16T01:45:49;4.40;;;2.80;;
15871;SDS011;8035;51.962;7.162;2023-07-16T01:50:56;5.80;;;2.87;;
15871;SDS011;8035;51.962;7.162;2023-07-16T01:53:21;4.73;;;2.90;;
15871;SDS011;8035;51.962;7.162;2023-07-16T01:55:47;4.23;;;2.70;;
15871;SDS011;8035;51.962;7.162;2023-07-16T01:58:12;5.17;;;2.93;;
15871;SDS011;8035;51.962;7.162;2023-07-16T02:00:38;4.03;;;3.10;;
15871;SDS011;8035;51.962;7.162;2023-07-16T02:03:04;6.80;;;3.13;;
15871;SDS011;8035;51.962;7.162;2023-07-16T02:05:29;6.53;;;3.40;;
15871;SDS011;8035;51.962;7.162;2023-07-16T02:07:55;5.93;;;2.43;;
15871;SDS011;8035;51.962;7.162;2023-07-16T02:10:20;4.33;;;2.73;;
15871;SDS011;8035;51.962;7.162;2023-07-16T02:12:46;4.37;;;2.70;;
15871;SDS011;8035;51.962;7.162;2023-07-16T02:15:12;6.13;;;3.10;;
15871;SDS011;8035;51.962;7.162;2023-07-16T02:17:37;6.07;;;2.87;;
15871;SDS011;8035;51.962;7.162;2023-07-16T02:20:03;5.63;;;3.53;;
15871;SDS011;8035;51.962;7.162;2023-07-16T02:22:33;5.60;;;2.77;;
15871;SDS011;8035;51.962;7.162;2023-07-16T02:25:00;4.73;;;3.00;;
15871;SDS011;8035;51.962;7.162;2023-07-16T02:27:26;3.73;;;2.43;;
15871;SDS011;8035;51.962;7.162;2023-07-16T02:29:52;5.43;;;2.97;;
15871;SDS011;8035;51.962;7.162;2023-07-16T02:32:17;5.40;;;2.73;;
15871;SDS011;8035;51.962;7.162;2023-07-16T02:34:43;5.57;;;3.00;;
15871;SDS011;8035;51.962;7.162;2023-07-16T02:37:08;5.90;;;2.83;;
15871;SDS011;8035;51.962;7.162;2023-07-16T02:39:34;5.63;;;3.00;;
15871;SDS011;8035;51.962;7.162;2023-07-16T02:42:00;5.70;;;3.23;;
15871;SDS011;8035;51.962;7.162;2023-07-16T02:44:25;4.27;;;2.83;;
15871;SDS011;8035;51.962;7.162;2023-07-16T02:46:51;6.90;;;2.90;;
15871;SDS011;8035;51.962;7.162;2023-07-16T02:49:16;5.93;;;3.23;;
15871;SDS011;8035;51.962;7.162;2023-07-16T02:51:42;8.13;;;3.03;;
15871;SDS011;8035;51.962;7.162;2023-07-16T02:54:08;5.73;;;2.60;;
15871;SDS011;8035;51.962;7.162;2023-07-16T02:56:33;8.53;;;3.27;;
15871;SDS011;8035;51.962;7.162;2023-07-16T02:58:59;9.03;;;3.60;;
15871;SDS011;8035;51.962;7.162;2023-07-16T03:01:25;4.93;;;3.30;;
15871;SDS011;8035;51.962;7.162;2023-07-16T03:03:50;4.80;;;3.60;;
15871;SDS011;8035;51.962;7.162;2023-07-16T03:06:16;7.23;;;3.03;;
15871;SDS011;8035;51.962;7.162;2023-07-16T03:08:42;5.33;;;3.27;;
15871;SDS011;8035;51.962;7.162;2023-07-16T03:11:07;6.93;;;3.97;;
15871;SDS011;8035;51.962;7.162;2023-07-16T03:13:33;10.33;;;4.20;;
15871;SDS011;8035;51.962;7.162;2023-07-16T03:15:59;5.07;;;4.07;;
15871;SDS011;8035;51.962;7.162;2023-07-16T03:18:27;8.73;;;4.50;;
15871;SDS011;8035;51.962;7.162;2023-07-16T03:20:54;11.43;;;5.00;;
15871;SDS011;8035;51.962;7.162;2023-07-16T03:23:20;4.80;;;4.30;;
15871;SDS011;8035;51.962;7.162;2023-07-16T03:25:45;7.33;;;4.70;;
15871;SDS011;8035;51.962;7.162;2023-07-16T03:28:11;7.77;;;5.40;;
15871;SDS011;8035;51.962;7.162;2023-07-16T03:30:36;8.17;;;5.20;;
15871;SDS011;8035;51.962;7.162;2023-07-16T03:33:02;6.23;;;4.73;;
15871;SDS011;8035;51.962;7.162;2023-07-16T03:35:29;8.80;;;5.17;;
15871;SDS011;8035;51.962;7.162;2023-07-16T03:37:54;7.50;;;5.47;;
15871;SDS011;8035;51.962;7.162;2023-07-16T03:40:23;8.17;;;5.20;;
15871;SDS011;8035;51.962;7.162;2023-07-16T03:42:49;7.27;;;5.70;;
15871;SDS011;8035;51.962;7.162;2023-07-16T03:45:15;10.40;;;5.80;;
15871;SDS011;8035;51.962;7.162;2023-07-16T03:47:41;7.70;;;5.53;;
15871;SDS011;8035;51.962;7.162;2023-07-16T03:50:07;6.73;;;5.63;;
15871;SDS011;8035;51.962;7.162;2023-07-16T03:52:33;9.53;;;5.40;;
15871;SDS011;8035;51.962;7.162;2023-07-16T03:54:59;7.50;;;5.90;;
15871;SDS011;8035;51.962;7.162;2023-07-16T03:57:25;8.67;;;5.60;;
15871;SDS011;8035;51.962;7.162;2023-07-16T03:59:52;7.73;;;5.87;;
15871;SDS011;8035;51.962;7.162;2023-07-16T04:02:18;8.27;;;4.53;;
15871;SDS011;8035;51.962;7.162;2023-07-16T04:04:43;5.93;;;5.00;;
15871;SDS011;8035;51.962;7.162;2023-07-16T04:07:09;9.20;;;5.07;;
15871;SDS011;8035;51.962;7.162;2023-07-16T04:09:37;6.40;;;5.03;;
15871;SDS011;8035;51.962;7.162;2023-07-16T04:12:04;10.00;;;5.40;;
15871;SDS011;8035;51.962;7.162;2023-07-16T04:14:30;11.53;;;5.00;;
15871;SDS011;8035;51.962;7.162;2023-07-16T04:16:56;6.53;;;4.37;;
15871;SDS011;8035;51.962;7.162;2023-07-16T04:19:22;8.73;;;4.03;;
15871;SDS011;8035;51.962;7.162;2023-07-16T04:21:47;6.03;;;4.00;;
15871;SDS011;8035;51.962;7.162;2023-07-16T04:24:13;6.80;;;4.23;;
15871;SDS011;8035;51.962;7.162;2023-07-16T04:26:38;7.90;;;4.00;;
15871;SDS011;8035;51.962;7.162;2023-07-16T04:29:04;6.37;;;3.63;;
15871;SDS011;8035;51.962;7.162;2023-07-16T04:31:29;6.27;;;3.67;;
15871;SDS011;8035;51.962;7.162;2023-07-16T04:33:55;6.80;;;3.50;;
15871;SDS011;8035;51.962;7.162;2023-07-16T04:36:21;4.30;;;2.77;;
15871;SDS011;8035;51.962;7.162;2023-07-16T04:38:46;6.97;;;3.60;;
15871;SDS011;8035;51.962;7.162;2023-07-16T04:41:12;8.10;;;4.10;;
15871;SDS011;8035;51.962;7.162;2023-07-16T04:43:38;6.43;;;3.20;;
15871;SDS011;8035;51.962;7.162;2023-07-16T04:46:03;4.63;;;3.00;;
15871;SDS011;8035;51.962;7.162;2023-07-16T04:48:29;5.17;;;3.00;;
15871;SDS011;8035;51.962;7.162;2023-07-16T04:50:55;6.30;;;3.30;;
15871;SDS011;8035;51.962;7.162;2023-07-16T04:53:21;5.00;;;2.57;;
15871;SDS011;8035;51.962;7.162;2023-07-16T04:55:47;7.27;;;2.93;;
15871;SDS011;8035;51.962;7.162;2023-07-16T04:58:13;7.60;;;3.67;;
15871;SDS011;8035;51.962;7.162;2023-07-16T05:00:39;4.93;;;3.30;;
15871;SDS011;8035;51.962;7.162;2023-07-16T05:03:05;8.07;;;3.30;;
15871;SDS011;8035;51.962;7.162;2023-07-16T05:05:31;7.60;;;3.70;;
15871;SDS011;8035;51.962;7.162;2023-07-16T05:07:56;5.70;;;3.63;;
15871;SDS011;8035;51.962;7.162;2023-07-16T05:10:22;9.03;;;3.60;;
15871;SDS011;8035;51.962;7.162;2023-07-16T05:12:47;8.07;;;3.63;;
15871;SDS011;8035;51.962;7.162;2023-07-16T05:15:13;6.93;;;3.13;;
15871;SDS011;8035;51.962;7.162;2023-07-16T05:17:39;9.67;;;3.47;;
15871;SDS011;8035;51.962;7.162;2023-07-16T05:20:05;7.70;;;3.37;;
15871;SDS011;8035;51.962;7.162;2023-07-16T05:22:31;8.33;;;3.07;;
15871;SDS011;8035;51.962;7.162;2023-07-16T05:24:57;8.87;;;3.50;;
15871;SDS011;8035;51.962;7.162;2023-07-16T05:27:23;5.63;;;3.03;;
15871;SDS011;8035;51.962;7.162;2023-07-16T05:29:49;11.33;;;3.67;;
15871;SDS011;8035;51.962;7.162;2023-07-16T05:32:14;5.37;;;4.00;;
15871;SDS011;8035;51.962;7.162;2023-07-16T05:34:40;7.10;;;3.50;;
15871;SDS011;8035;51.962;7.162;2023-07-16T05:37:06;8.97;;;3.63;;
15871;SDS011;8035;51.962;7.162;2023-07-16T05:39:31;8.60;;;3.97;;
15871;SDS011;8035;51.962;7.162;2023-07-16T05:41:57;5.33;;;3.43;;
15871;SDS011;8035;51.962;7.162;2023-07-16T05:44:22;5.10;;;3.67;;
15871;SDS011;8035;51.962;7.162;2023-07-16T05:46:48;6.33;;;3.60;;
15871;SDS011;8035;51.962;7.162;2023-07-16T05:49:14;6.77;;;3.57;;
15871;SDS011;8035;51.962;7.162;2023-07-16T05:51:39;7.23;;;3.93;;
15871;SDS011;8035;51.962;7.162;2023-07-16T05:54:05;9.63;;;3.77;;
15871;SDS011;8035;51.962;7.162;2023-07-16T05:56:31;6.77;;;3.57;;
15871;SDS011;8035;51.962;7.162;2023-07-16T05:58:57;5.97;;;4.00;;
15871;SDS011;8035;51.962;7.162;2023-07-16T06:01:22;10.17;;;4.33;;
15871;SDS011;8035;51.962;7.162;2023-07-16T06:03:48;7.20;;;4.10;;
15871;SDS011;8035;51.962;7.162;2023-07-16T06:06:13;7.67;;;4.03;;
15871;SDS011;8035;51.962;7.162;2023-07-16T06:08:39;7.30;;;3.97;;
15871;SDS011;8035;51.962;7.162;2023-07-16T06:11:04;7.27;;;3.97;;
15871;SDS011;8035;51.962;7.162;2023-07-16T06:13:30;7.27;;;3.50;;
15871;SDS011;8035;51.962;7.162;2023-07-16T06:15:56;6.80;;;3.67;;
15871;SDS011;8035;51.962;7.162;2023-07-16T06:18:22;7.30;;;3.47;;
15871;SDS011;8035;51.962;7.162;2023-07-16T06:20:47;6.63;;;3.50;;
15871;SDS011;8035;51.962;7.162;2023-07-16T06:23:13;8.57;;;4.20;;
15871;SDS011;8035;51.962;7.162;2023-07-16T06:25:38;7.37;;;3.67;;
15871;SDS011;8035;51.962;7.162;2023-07-16T06:28:09;7.23;;;3.33;;
15871;SDS011;8035;51.962;7.162;2023-07-16T06:30:35;5.10;;;3.73;;
15871;SDS011;8035;51.962;7.162;2023-07-16T06:33:01;6.00;;;3.50;;
15871;SDS011;8035;51.962;7.162;2023-07-16T06:35:27;7.37;;;3.67;;
15871;SDS011;8035;51.962;7.162;2023-07-16T06:37:53;7.53;;;3.50;;
15871;SDS011;8035;51.962;7.162;2023-07-16T06:40:18;6.33;;;3.73;;
15871;SDS011;8035;51.962;7.162;2023-07-16T06:42:44;6.67;;;3.90;;
15871;SDS011;8035;51.962;7.162;2023-07-16T06:45:09;10.80;;;4.17;;
15871;SDS011;8035;51.962;7.162;2023-07-16T06:47:35;9.33;;;4.30;;
15871;SDS011;8035;51.962;7.162;2023-07-16T06:50:01;6.17;;;4.07;;
15871;SDS011;8035;51.962;7.162;2023-07-16T06:52:26;5.80;;;3.30;;
15871;SDS011;8035;51.962;7.162;2023-07-16T06:54:53;6.37;;;3.77;;
15871;SDS011;8035;51.962;7.162;2023-07-16T06:57:19;6.73;;;4.23;;
15871;SDS011;8035;51.962;7.162;2023-07-16T06:59:45;7.33;;;4.13;;
15871;SDS011;8035;51.962;7.162;2023-07-16T07:02:11;12.37;;;4.90;;
15871;SDS011;8035;51.962;7.162;2023-07-16T07:04:37;9.80;;;4.53;;
15871;SDS011;8035;51.962;7.162;2023-07-16T07:07:03;8.93;;;4.37;;
15871;SDS011;8035;51.962;7.162;2023-07-16T07:09:29;8.70;;;4.60;;
15871;SDS011;8035;51.962;7.162;2023-07-16T07:11:54;9.67;;;5.43;;
15871;SDS011;8035;51.962;7.162;2023-07-16T07:14:20;9.03;;;4.60;;
15871;SDS011;8035;51.962;7.162;2023-07-16T07:16:45;12.63;;;4.50;;
15871;SDS011;8035;51.962;7.162;2023-07-16T07:19:11;8.83;;;5.33;;
15871;SDS011;8035;51.962;7.162;2023-07-16T07:21:37;10.27;;;5.07;;
15871;SDS011;8035;51.962;7.162;2023-07-16T07:24:03;8.83;;;4.80;;
15871;SDS011;8035;51.962;7.162;2023-07-16T07:26:28;12.27;;;5.83;;
15871;SDS011;8035;51.962;7.162;2023-07-16T07:28:54;11.27;;;4.97;;
15871;SDS011;8035;51.962;7.162;2023-07-16T07:31:19;8.03;;;4.63;;
15871;SDS011;8035;51.962;7.162;2023-07-16T07:33:45;6.70;;;4.40;;
15871;SDS011;8035;51.962;7.162;2023-07-16T07:36:10;9.63;;;4.63;;
15871;SDS011;8035;51.962;7.162;2023-07-16T07:38:36;9.30;;;4.90;;
15871;SDS011;8035;51.962;7.162;2023-07-16T07:41:02;8.83;;;4.10;;
15871;SDS011;8035;51.962;7.162;2023-07-16T07:43:29;9.50;;;4.57;;
15871;SDS011;8035;51.962;7.162;2023-07-16T07:45:54;12.53;;;5.30;;
15871;SDS011;8035;51.962;7.162;2023-07-16T07:48:20;9.40;;;4.50;;
15871;SDS011;8035;51.962;7.162;2023-07-16T07:50:46;7.30;;;5.10;;
15871;SDS011;8035;51.962;7.162;2023-07-16T07:53:12;10.70;;;4.90;;
15871;SDS011;8035;51.962;7.162;2023-07-16T07:55:39;10.30;;;4.77;;
15871;SDS011;8035;51.962;7.162;2023-07-16T07:58:06;6.07;;;4.33;;
15871;SDS011;8035;51.962;7.162;2023-07-16T08:00:32;8.90;;;4.83;;
15871;SDS011;8035;51.962;7.162;2023-07-16T08:02:58;8.23;;;4.80;;
15871;SDS011;8035;51.962;7.162;2023-07-16T08:05:24;10.27;;;4.60;;
15871;SDS011;8035;51.962;7.162;2023-07-16T08:07:49;10.40;;;4.70;;
15871;SDS011;8035;51.962;7.162;2023-07-16T08:10:15;9.97;;;5.00;;
15871;SDS011;8035;51.962;7.162;2023-07-16T08:12:40;7.50;;;4.30;;
15871;SDS011;8035;51.962;7.162;2023-07-16T08:15:06;8.17;;;4.77;;
15871;SDS011;8035;51.962;7.162;2023-07-16T08:17:34;6.07;;;4.30;;
15871;SDS011;8035;51.962;7.162;2023-07-16T08:19:59;11.20;;;4.80;;
15871;SDS011;8035;51.962;7.162;2023-07-16T08:22:25;8.17;;;4.40;;
15871;SDS011;8035;51.962;7.162;2023-07-16T08:24:51;9.60;;;4.60;;
15871;SDS011;8035;51.962;7.162;2023-07-16T08:27:17;5.83;;;4.37;;
15871;SDS011;8035;51.962;7.162;2023-07-16T08:29:43;7.27;;;4.47;;
15871;SDS011;8035;51.962;7.162;2023-07-16T08:32:09;7.00;;;4.40;;
15871;SDS011;8035;51.962;7.162;2023-07-16T08:34:34;6.40;;;4.60;;
15871;SDS011;8035;51.962;7.162;2023-07-16T08:37:00;8.07;;;4.30;;
15871;SDS011;8035;51.962;7.162;2023-07-16T08:39:26;10.80;;;4.83;;
15871;SDS011;8035;51.962;7.162;2023-07-16T08:41:51;6.53;;;4.37;;
15871;SDS011;8035;51.962;7.162;2023-07-16T08:44:17;7.50;;;4.50;;
15871;SDS011;8035;51.962;7.162;2023-07-16T08:46:43;7.37;;;4.13;;
15871;SDS011;8035;51.962;7.162;2023-07-16T08:49:09;9.23;;;4.70;;
15871;SDS011;8035;51.962;7.162;2023-07-16T08:51:36;9.70;;;4.73;;
15871;SDS011;8035;51.962;7.162;2023-07-16T08:54:02;5.57;;;3.93;;
15871;SDS011;8035;51.962;7.162;2023-07-16T08:56:28;7.00;;;4.30;;
15871;SDS011;8035;51.962;7.162;2023-07-16T08:58:54;6.90;;;4.10;;
15871;SDS011;8035;51.962;7.162;2023-07-16T09:01:22;10.80;;;4.77;;
15871;SDS011;8035;51.962;7.162;2023-07-16T09:03:49;6.90;;;4.27;;
15871;SDS011;8035;51.962;7.162;2023-07-16T09:06:14;8.20;;;4.13;;
15871;SDS011;8035;51.962;7.162;2023-07-16T09:08:41;6.57;;;4.40;;
15871;SDS011;8035;51.962;7.162;2023-07-16T09:11:10;7.97;;;3.80;;
15871;SDS011;8035;51.962;7.162;2023-07-16T09:13:37;7.70;;;4.43;;
15871;SDS011;8035;51.962;7.162;2023-07-16T09:16:02;8.23;;;4.37;;
15871;SDS011;8035;51.962;7.162;2023-07-16T09:18:28;7.47;;;4.30;;
15871;SDS011;8035;51.962;7.162;2023-07-16T09:20:54;7.30;;;4.17;;
15871;SDS011;8035;51.962;7.162;2023-07-16T09:23:26;8.40;;;4.10;;
15871;SDS011;8035;51.962;7.162;2023-07-16T09:25:52;5.93;;;4.17;;
15871;SDS011;8035;51.962;7.162;2023-07-16T09:28:20;5.13;;;3.90;;
15871;SDS011;8035;51.962;7.162;2023-07-16T09:30:46;7.93;;;4.10;;
15871;SDS011;8035;51.962;7.162;2023-07-16T09:33:13;8.27;;;4.00;;
15871;SDS011;8035;51.962;7.162;2023-07-16T09:35:40;10.47;;;4.07;;
15871;SDS011;8035;51.962;7.162;2023-07-16T09:38:07;11.50;;;3.90;;
15871;SDS011;8035;51.962;7.162;2023-07-16T09:40:36;6.27;;;3.90;;
15871;SDS011;8035;51.962;7.162;2023-07-16T09:43:03;6.33;;;4.33;;
15871;SDS011;8035;51.962;7.162;2023-07-16T09:45:30;5.80;;;3.97;;
15871;SDS011;8035;51.962;7.162;2023-07-16T09:47:56;5.60;;;4.07;;
15871;SDS011;8035;51.962;7.162;2023-07-16T09:50:23;6.53;;;4.07;;
15871;SDS011;8035;51.962;7.162;2023-07-16T09:52:50;7.70;;;3.57;;
15871;SDS011;8035;51.962;7.162;2023-07-16T09:55:16;9.73;;;4.00;;
15871;SDS011;8035;51.962;7.162;2023-07-16T09:57:46;8.33;;;4.13;;
15871;SDS011;8035;51.962;7.162;2023-07-16T10:00:14;5.93;;;3.70;;
15871;SDS011;8035;51.962;7.162;2023-07-16T10:02:42;7.10;;;3.77;;
15871;SDS011;8035;51.962;7.162;2023-07-16T10:05:12;7.87;;;4.10;;
15871;SDS011;8035;51.962;7.162;2023-07-16T10:07:38;9.57;;;4.40;;
15871;SDS011;8035;51.962;7.162;2023-07-16T10:10:07;6.97;;;3.83;;
15871;SDS011;8035;51.962;7.162;2023-07-16T10:12:34;5.70;;;3.87;;
15871;SDS011;8035;51.962;7.162;2023-07-16T10:15:00;5.80;;;3.67;;
15871;SDS011;8035;51.962;7.162;2023-07-16T10:17:29;11.77;;;4.40;;
15871;SDS011;8035;51.962;7.162;2023-07-16T10:20:00;4.77;;;3.80;;
15871;SDS011;8035;51.962;7.162;2023-07-16T10:22:33;5.97;;;4.20;;
15871;SDS011;8035;51.962;7.162;2023-07-16T10:25:22;7.93;;;4.20;;
15871;SDS011;8035;51.962;7.162;2023-07-16T10:27:50;6.63;;;4.30;;
15871;SDS011;8035;51.962;7.162;2023-07-16T10:30:17;5.93;;;3.97;;
15871;SDS011;8035;51.962;7.162;2023-07-16T10:32:44;7.17;;;4.10;;
15871;SDS011;8035;51.962;7.162;2023-07-16T10:35:10;5.87;;;3.57;;
15871;SDS011;8035;51.962;7.162;2023-07-16T10:37:36;6.43;;;4.03;;
15871;SDS011;8035;51.962;7.162;2023-07-16T10:40:03;4.13;;;3.40;;
15871;SDS011;8035;51.962;7.162;2023-07-16T10:42:30;7.10;;;4.00;;
15871;SDS011;8035;51.962;7.162;2023-07-16T10:44:59;7.33;;;3.87;;
15871;SDS011;8035;51.962;7.162;2023-07-16T10:47:30;5.80;;;3.40;;
15871;SDS011;8035;51.962;7.162;2023-07-16T10:49:57;6.73;;;4.00;;
15871;SDS011;8035;51.962;7.162;2023-07-16T10:52:23;9.80;;;3.87;;
15871;SDS011;8035;51.962;7.162;2023-07-16T10:54:50;5.43;;;3.37;;
15871;SDS011;8035;51.962;7.162;2023-07-16T10:57:19;4.30;;;3.47;;
15871;SDS011;8035;51.962;7.162;2023-07-16T10:59:45;5.90;;;3.57;;
15871;SDS011;8035;51.962;7.162;2023-07-16T11:02:13;4.70;;;3.73;;
15871;SDS011;8035;51.962;7.162;2023-07-16T11:04:39;5.60;;;3.30;;
15871;SDS011;8035;51.962;7.162;2023-07-16T11:07:08;7.13;;;3.23;;
15871;SDS011;8035;51.962;7.162;2023-07-16T11:09:43;8.60;;;3.50;;
15871;SDS011;8035;51.962;7.162;2023-07-16T11:12:14;5.30;;;3.13;;
15871;SDS011;8035;51.962;7.162;2023-07-16T11:14:44;6.80;;;3.60;;
15871;SDS011;8035;51.962;7.162;2023-07-16T11:17:11;5.37;;;3.37;;
15871;SDS011;8035;51.962;7.162;2023-07-16T11:19:38;5.30;;;3.20;;
15871;SDS011;8035;51.962;7.162;2023-07-16T11:22:05;6.57;;;3.33;;
15871;SDS011;8035;51.962;7.162;2023-07-16T11:27:14;5.57;;;3.70;;
15871;SDS011;8035;51.962;7.162;2023-07-16T11:30:00;5.27;;;3.87;;
15871;SDS011;8035;51.962;7.162;2023-07-16T11:32:27;6.23;;;3.30;;
15871;SDS011;8035;51.962;7.162;2023-07-16T11:35:00;7.20;;;3.10;;
15871;SDS011;8035;51.962;7.162;2023-07-16T11:37:28;6.30;;;3.77;;
15871;SDS011;8035;51.962;7.162;2023-07-16T11:40:01;5.70;;;3.80;;
15871;SDS011;8035;51.962;7.162;2023-07-16T11:44:55;6.97;;;3.50;;
15871;SDS011;8035;51.962;7.162;2023-07-16T11:47:22;5.60;;;3.30;;
15871;SDS011;8035;51.962;7.162;2023-07-16T11:49:48;5.83;;;3.20;;
15871;SDS011;8035;51.962;7.162;2023-07-16T11:52:14;7.73;;;3.60;;
15871;SDS011;8035;51.962;7.162;2023-07-16T11:54:43;5.07;;;3.50;;
15871;SDS011;8035;51.962;7.162;2023-07-16T11:57:09;7.43;;;3.70;;
15871;SDS011;8035;51.962;7.162;2023-07-16T11:59:34;6.93;;;3.60;;
15871;SDS011;8035;51.962;7.162;2023-07-16T12:02:00;4.73;;;3.53;;
15871;SDS011;8035;51.962;7.162;2023-07-16T12:04:26;6.20;;;3.40;;
15871;SDS011;8035;51.962;7.162;2023-07-16T12:06:52;6.90;;;3.60;;
15871;SDS011;8035;51.962;7.162;2023-07-16T12:09:17;4.90;;;3.63;;
15871;SDS011;8035;51.962;7.162;2023-07-16T12:11:43;5.83;;;3.17;;
15871;SDS011;8035;51.962;7.162;2023-07-16T12:14:08;8.77;;;3.67;;
15871;SDS011;8035;51.962;7.162;2023-07-16T12:16:35;4.37;;;3.20;;
15871;SDS011;8035;51.962;7.162;2023-07-16T12:19:00;5.63;;;3.40;;
15871;SDS011;8035;51.962;7.162;2023-07-16T12:21:26;6.60;;;3.47;;
15871;SDS011;8035;51.962;7.162;2023-07-16T12:23:51;6.27;;;3.27;;
15871;SDS011;8035;51.962;7.162;2023-07-16T12:26:17;6.50;;;3.40;;
15871;SDS011;8035;51.962;7.162;2023-07-16T12:28:42;5.37;;;3.63;;
15871;SDS011;8035;51.962;7.162;2023-07-16T12:31:08;5.73;;;3.60;;
15871;SDS011;8035;51.962;7.162;2023-07-16T12:33:34;5.20;;;3.53;;
15871;SDS011;8035;51.962;7.162;2023-07-16T12:35:59;4.47;;;3.47;;
15871;SDS011;8035;51.962;7.162;2023-07-16T12:38:25;6.43;;;3.77;;
15871;SDS011;8035;51.962;7.162;2023-07-16T12:40:50;7.37;;;3.43;;
15871;SDS011;8035;51.962;7.162;2023-07-16T12:43:16;4.47;;;3.60;;
15871;SDS011;8035;51.962;7.162;2023-07-16T12:45:43;6.57;;;3.93;;
15871;SDS011;8035;51.962;7.162;2023-07-16T12:48:08;6.00;;;3.80;;
15871;SDS011;8035;51.962;7.162;2023-07-16T12:50:34;6.70;;;3.63;;
15871;SDS011;8035;51.962;7.162;2023-07-16T12:52:59;5.13;;;3.47;;
15871;SDS011;8035;51.962;7.162;2023-07-16T12:55:25;6.03;;;3.37;;
15871;SDS011;8035;51.962;7.162;2023-07-16T12:57:51;4.57;;;4.13;;
15871;SDS011;8035;51.962;7.162;2023-07-16T13:00:16;6.88;;;3.78;;
15871;SDS011;8035;51.962;7.162;2023-07-16T13:02:42;5.25;;;3.20;;
15871;SDS011;8035;51.962;7.162;2023-07-16T13:05:07;5.10;;;3.40;;
15871;SDS011;8035;51.962;7.162;2023-07-16T13:07:33;5.70;;;3.30;;
15871;SDS011;8035;51.962;7.162;2023-07-16T13:09:58;6.27;;;3.10;;
15871;SDS011;8035;51.962;7.162;2023-07-16T13:12:24;3.33;;;2.73;;
15871;SDS011;8035;51.962;7.162;2023-07-16T13:14:49;3.43;;;3.00;;
15871;SDS011;8035;51.962;7.162;2023-07-16T13:17:15;4.17;;;3.03;;
15871;SDS011;8035;51.962;7.162;2023-07-16T13:19:42;5.70;;;3.37;;
15871;SDS011;8035;51.962;7.162;2023-07-16T13:22:08;4.00;;;3.13;;
15871;SDS011;8035;51.962;7.162;2023-07-16T13:24:33;5.53;;;2.90;;
15871;SDS011;8035;51.962;7.162;2023-07-16T13:26:59;5.43;;;2.70;;
15871;SDS011;8035;51.962;7.162;2023-07-16T13:29:24;6.03;;;3.17;;
15871;SDS011;8035;51.962;7.162;2023-07-16T13:31:50;3.47;;;2.53;;
15871;SDS011;8035;51.962;7.162;2023-07-16T13:34:16;4.87;;;2.70;;
15871;SDS011;8035;51.962;7.162;2023-07-16T13:36:41;7.10;;;2.23;;
15871;SDS011;8035;51.962;7.162;2023-07-16T13:39:07;4.63;;;2.90;;
15871;SDS011;8035;51.962;7.162;2023-07-16T13:41:33;4.20;;;2.63;;
15871;SDS011;8035;51.962;7.162;2023-07-16T13:43:58;4.97;;;3.10;;
15871;SDS011;8035;51.962;7.162;2023-07-16T13:46:24;3.37;;;2.50;;
15871;SDS011;8035;51.962;7.162;2023-07-16T13:48:49;3.43;;;2.40;;
15871;SDS011;8035;51.962;7.162;2023-07-16T13:51:15;4.70;;;2.67;;
15871;SDS011;8035;51.962;7.162;2023-07-16T13:53:41;5.03;;;2.80;;
15871;SDS011;8035;51.962;7.162;2023-07-16T13:56:06;2.93;;;2.67;;
15871;SDS011;8035;51.962;7.162;2023-07-16T13:58:33;4.45;;;2.90;;
15871;SDS011;8035;51.962;7.162;2023-07-16T14:00:58;3.72;;;2.97;;
15871;SDS011;8035;51.962;7.162;2023-07-16T14:03:24;4.40;;;2.92;;
15871;SDS011;8035;51.962;7.162;2023-07-16T14:05:50;4.40;;;2.53;;
15871;SDS011;8035;51.962;7.162;2023-07-16T14:08:16;5.40;;;2.80;;
15871;SDS011;8035;51.962;7.162;2023-07-16T14:10:42;2.97;;;2.60;;
15871;SDS011;8035;51.962;7.162;2023-07-16T14:13:07;4.63;;;2.80;;
15871;SDS011;8035;51.962;7.162;2023-07-16T14:15:33;5.30;;;2.70;;
15871;SDS011;8035;51.962;7.162;2023-07-16T14:17:58;5.68;;;2.28;;
15871;SDS011;8035;51.962;7.162;2023-07-16T14:20:24;5.43;;;2.97;;
15871;SDS011;8035;51.962;7.162;2023-07-16T14:22:49;4.47;;;2.35;;
15871;SDS011;8035;51.962;7.162;2023-07-16T14:25:15;3.42;;;2.38;;
15871;SDS011;8035;51.962;7.162;2023-07-16T14:27:40;3.30;;;2.25;;
15871;SDS011;8035;51.962;7.162;2023-07-16T14:30:06;2.63;;;2.22;;
15871;SDS011;8035;51.962;7.162;2023-07-16T14:32:33;5.13;;;2.35;;
15871;SDS011;8035;51.962;7.162;2023-07-16T14:34:59;2.88;;;2.25;;
15871;SDS011;8035;51.962;7.162;2023-07-16T14:37:25;2.55;;;2.10;;
15871;SDS011;8035;51.962;7.162;2023-07-16T14:39:51;6.28;;;2.60;;
15871;SDS011;8035;51.962;7.162;2023-07-16T14:42:17;2.75;;;2.30;;
15871;SDS011;8035;51.962;7.162;2023-07-16T14:44:42;4.85;;;2.78;;
15871;SDS011;8035;51.962;7.162;2023-07-16T14:47:08;3.75;;;2.42;;
15871;SDS011;8035;51.962;7.162;2023-07-16T14:49:34;5.03;;;2.10;;
15871;SDS011;8035;51.962;7.162;2023-07-16T14:52:00;3.88;;;2.20;;
15871;SDS011;8035;51.962;7.162;2023-07-16T14:54:26;6.50;;;2.27;;
15871;SDS011;8035;51.962;7.162;2023-07-16T14:56:51;5.63;;;2.70;;
15871;SDS011;8035;51.962;7.162;2023-07-16T14:59:17;5.37;;;2.40;;
15871;SDS011;8035;51.962;7.162;2023-07-16T15:01:42;3.70;;;2.45;;
15871;SDS011;8035;51.962;7.162;2023-07-16T15:04:08;3.85;;;2.70;;
15871;SDS011;8035;51.962;7.162;2023-07-16T15:06:34;4.60;;;2.60;;